Juan Santamaria International Airport
MROC : now visible

Airfield :











YOU CAN JOIN US ON...

 
LOGIN :

Register | Disclaimer

   EN    FR    IT 

 









Legend :    VFR   Marginal VFR   IFR   Intensive IFR   Very Intensive IFR
Visi :
Ceiling :
>= 8 km
>= 3000ft
5 to 8 km
1000 to 3000 ft
1500m to 5 km
500 to 1000 ft
800 to 1500m
200 to 500 ft
< 800m
< 200 ft
Symbols :   Thunderstorms  Fog  Heavy snow  Heavy precipitations  Wind > 20 kt






- Airport Elevation : 3021 ft
- IATA code : SJO


MROC - Juan Santamaria International

CURRENT METAR :
  • 051900Z 10010KT 070V130 9999 FEW030 BKN090 24/18 A2999 NOSIG

EXPIRED METARs :
  • 051800Z 09012KT 9999 FEW040 SCT090 26/17 A3001 NOSIG
  • 051700Z 10014KT 070V130 9999 FEW040 SCT060 26/18 A3003 NOSIG

TAF MROC
Valid from the 05 at 18:00 until the 06 at 18:00 UTC


051700Z 0518/0618 11013KT 9999 FEW035 TX29/0518Z TN19/0611Z



MET'MAP, your aeronautical weather chart ! - Copyright ORBIFLY December 2007 - Disclaimer

ORBIFLY MET'MAP TEAM :

Programming & Development : Alexandra Zaïnal
Concept & original design : Baudouin d'Aumeries
Assistance for programming : Marc-Olivier Méhu
Technical & hardware support : Manuel Goepfert

Contact : metmap@orbifly.com




SOURCES & CREDITS :

   NOAA       Earth
Advisory